createdAt,value
2019-04-23T00:01:02.999Z,9.90
2019-04-23T00:03:18.746Z,9.93
2019-04-23T00:05:54.930Z,10.77
2019-04-23T00:08:29.185Z,18.80
2019-04-23T00:10:59.910Z,12.77
2019-04-23T00:13:30.512Z,11.23
2019-04-23T00:16:03.176Z,8.60
2019-04-23T00:18:36.817Z,15.30
2019-04-23T00:21:23.568Z,11.30
2019-04-23T00:24:07.539Z,11.83
2019-04-23T00:26:31.884Z,17.03
2019-04-23T00:29:00.551Z,9.00
2019-04-23T00:31:27.503Z,10.37
2019-04-23T00:33:59.125Z,15.80
2019-04-23T00:36:32.455Z,9.77
2019-04-23T00:38:55.796Z,9.60
2019-04-23T00:41:31.184Z,9.83
2019-04-23T00:46:28.906Z,10.17
2019-04-23T00:49:06.127Z,12.07
2019-04-23T00:51:32.880Z,17.07
2019-04-23T00:54:02.241Z,12.03
2019-04-23T00:56:38.589Z,12.63
2019-04-23T00:59:00.397Z,12.73
2019-04-23T01:01:41.217Z,9.20
2019-04-23T01:04:07.150Z,10.50
2019-04-23T01:06:32.457Z,15.33
2019-04-23T01:09:03.268Z,9.83
2019-04-23T01:11:32.073Z,19.40
2019-04-23T01:14:06.691Z,11.10
2019-04-23T01:16:32.945Z,13.67
2019-04-23T01:18:58.072Z,9.97
2019-04-23T01:21:30.604Z,10.73
2019-04-23T01:24:19.079Z,12.13
2019-04-23T01:27:39.013Z,9.80
2019-04-23T01:30:05.079Z,10.10
2019-04-23T01:32:32.099Z,11.27
2019-04-23T01:37:33.139Z,10.90
2019-04-23T01:40:09.715Z,18.33
2019-04-23T01:42:42.834Z,13.73
2019-04-23T01:45:07.248Z,10.37
2019-04-23T01:47:30.394Z,13.80
2019-04-23T01:50:09.683Z,9.47
2019-04-23T01:52:39.861Z,15.83
2019-04-23T01:55:10.235Z,10.13
2019-04-23T01:57:37.538Z,10.37
2019-04-23T02:00:14.322Z,10.67
2019-04-23T02:02:43.101Z,12.07
2019-04-23T02:05:09.391Z,11.93
2019-04-23T02:07:45.658Z,13.27
2019-04-23T02:10:31.193Z,11.80
2019-04-23T02:12:42.084Z,9.37
2019-04-23T02:15:11.485Z,16.30
2019-04-23T02:17:41.151Z,11.67
2019-04-23T02:22:51.798Z,22.13
2019-04-23T02:25:34.503Z,17.57
2019-04-23T02:27:59.348Z,12.80
2019-04-23T02:35:46.826Z,10.47
2019-04-23T02:40:37.386Z,10.70
2019-04-23T02:48:11.064Z,9.97
2019-04-23T02:53:07.849Z,13.47
2019-04-23T03:33:08.271Z,10.80
2019-04-23T03:41:14.781Z,13.30
2019-04-23T03:43:48.992Z,11.50
2019-04-23T05:24:53.693Z,11.67
2019-04-23T05:26:44.517Z,14.40
2019-04-23T05:31:32.848Z,15.00
2019-04-23T05:34:12.596Z,27.00
2019-04-23T05:39:17.533Z,15.90
2019-04-23T05:44:15.463Z,19.17
2019-04-23T05:49:11.092Z,14.87
2019-04-23T05:51:50.867Z,23.17
2019-04-23T05:54:12.541Z,16.47
2019-04-23T06:04:22.873Z,16.93
2019-04-23T06:07:06.058Z,16.40
2019-04-23T06:11:52.557Z,14.37
2019-04-23T06:14:19.018Z,66.50
2019-04-23T06:16:50.684Z,20.13
2019-04-23T06:19:16.908Z,17.57
2019-04-23T06:22:00.401Z,16.13
2019-04-23T06:24:35.066Z,20.83
2019-04-23T06:26:54.237Z,17.47
2019-04-23T06:29:25.475Z,29.33
2019-04-23T06:34:31.116Z,19.43
2019-04-23T06:36:51.441Z,18.13
2019-04-23T06:39:34.480Z,24.43
2019-04-23T06:41:55.041Z,20.37
2019-04-23T06:44:32.753Z,18.40
2019-04-23T06:47:12.922Z,17.67
2019-04-23T06:49:37.707Z,21.67
2019-04-23T06:52:14.950Z,19.00
2019-04-23T06:59:39.098Z,17.87
2019-04-23T07:04:41.043Z,22.07
2019-04-23T07:09:37.270Z,25.20
2019-04-23T07:12:09.079Z,25.17
2019-04-23T07:14:47.679Z,35.33
2019-04-23T07:17:08.674Z,24.97
2019-04-23T07:19:42.374Z,19.37
2019-04-23T07:27:14.894Z,21.93
2019-04-23T07:29:50.099Z,22.00
2019-04-23T07:32:11.620Z,22.60
2019-04-23T07:34:50.930Z,25.50
2019-04-23T07:37:18.999Z,20.60
2019-04-23T07:40:11.313Z,25.70
2019-04-23T07:45:02.096Z,19.70
2019-04-23T07:47:43.533Z,24.17
2019-04-23T07:52:51.344Z,24.50
2019-04-23T07:55:22.060Z,26.20
2019-04-23T07:57:53.594Z,21.63
2019-04-23T08:00:18.158Z,25.53
2019-04-23T08:02:44.091Z,24.73
2019-04-23T08:05:25.113Z,22.70
2019-04-23T08:07:52.479Z,21.33
2019-04-23T08:10:22.801Z,27.23
2019-04-23T08:12:50.592Z,20.33
2019-04-23T08:15:24.943Z,33.70
2019-04-23T08:17:50.514Z,25.10
2019-04-23T08:20:22.764Z,25.63
2019-04-23T08:22:57.129Z,24.17
2019-04-23T08:25:32.008Z,24.00
2019-04-23T08:30:26.462Z,26.80
2019-04-23T08:32:58.298Z,26.30
2019-04-23T08:35:19.466Z,33.00
2019-04-23T08:38:22.888Z,20.47
2019-04-23T08:40:30.850Z,24.43
2019-04-23T08:43:09.063Z,23.20
2019-04-23T08:48:22.978Z,28.53
2019-04-23T08:50:50.697Z,33.70
2019-04-23T08:53:30.874Z,28.80
2019-04-23T08:58:19.056Z,26.40
2019-04-23T09:00:52.097Z,28.70
2019-04-23T09:05:55.891Z,24.83
2019-04-23T09:08:33.174Z,30.87
2019-04-23T09:10:56.819Z,31.90
2019-04-23T09:18:22.562Z,30.17
2019-04-23T09:20:53.031Z,24.07
2019-04-23T09:23:30.411Z,29.33
2019-04-23T09:25:55.948Z,24.97
2019-04-23T09:28:34.569Z,23.17
2019-04-23T09:31:03.983Z,19.60
2019-04-23T09:33:39.444Z,24.23
2019-04-23T09:36:09.793Z,24.70
2019-04-23T09:38:46.866Z,31.00
2019-04-23T09:43:57.792Z,26.10
2019-04-23T09:46:23.597Z,28.17
2019-04-23T09:48:58.244Z,32.27
2019-04-23T09:53:59.447Z,32.07
2019-04-23T09:56:32.718Z,31.27
2019-04-23T09:59:07.465Z,23.20
2019-04-23T10:03:48.736Z,28.37
2019-04-23T10:06:16.106Z,21.50
2019-04-23T10:08:44.949Z,22.03
2019-04-23T10:11:09.575Z,30.60
2019-04-23T10:13:38.685Z,19.13
2019-04-23T10:16:11.642Z,25.93
2019-04-23T10:18:39.348Z,29.00
2019-04-23T10:21:08.403Z,22.67
2019-04-23T10:23:37.244Z,40.23
2019-04-23T10:26:07.854Z,24.70
2019-04-23T10:28:40.109Z,20.07
2019-04-23T10:31:09.605Z,19.30
2019-04-23T10:33:39.825Z,23.20
2019-04-23T10:36:11.673Z,34.20
2019-04-23T10:38:41.614Z,22.60
2019-04-23T10:41:10.196Z,27.33
2019-04-23T10:43:42.159Z,22.87
2019-04-23T10:46:48.936Z,22.80
2019-04-23T10:49:53.324Z,21.80
2019-04-23T10:57:16.626Z,31.43
2019-04-23T10:59:44.988Z,25.03
2019-04-23T11:02:36.451Z,30.73
2019-04-23T11:09:55.826Z,28.60
2019-04-23T11:15:32.240Z,37.30
2019-04-23T11:17:45.610Z,31.90
2019-04-23T11:22:48.281Z,25.33
2019-04-23T11:25:33.031Z,18.97
2019-04-23T11:35:47.776Z,26.03
2019-04-23T11:40:42.020Z,21.53
2019-04-23T11:43:29.282Z,18.73
2019-04-23T11:46:07.982Z,24.63
2019-04-23T11:48:46.623Z,28.97
2019-04-23T11:51:38.854Z,25.47
2019-04-23T11:53:52.880Z,22.93
2019-04-23T11:58:42.727Z,22.13
2019-04-23T12:01:40.768Z,29.13
2019-04-23T12:04:23.012Z,27.20
2019-04-23T12:06:42.026Z,25.40
2019-04-23T12:09:25.908Z,23.43
2019-04-23T12:14:40.458Z,25.10
2019-04-23T12:17:20.903Z,28.53
2019-04-23T12:19:52.064Z,29.83
2019-04-23T12:22:10.790Z,26.97
2019-04-23T12:24:58.191Z,49.97
2019-04-23T12:30:14.616Z,35.40
2019-04-23T12:37:34.638Z,37.97
2019-04-23T12:40:12.899Z,31.73
2019-04-23T12:47:53.629Z,25.37
2019-04-23T12:52:47.240Z,30.73
2019-04-23T12:57:49.016Z,41.13
2019-04-23T13:00:22.452Z,35.70
2019-04-23T13:03:06.325Z,31.47
2019-04-23T13:05:26.651Z,23.33
2019-04-23T13:08:23.379Z,27.93
2019-04-23T13:13:09.293Z,25.47
2019-04-23T13:15:30.513Z,29.73
2019-04-23T13:18:19.601Z,30.57
2019-04-23T13:20:31.893Z,25.80
2019-04-23T13:23:11.812Z,27.67
2019-04-23T13:25:55.501Z,32.57
2019-04-23T13:28:21.769Z,27.80
2019-04-23T13:33:31.984Z,25.63
2019-04-23T13:38:27.560Z,30.50
2019-04-23T13:40:57.202Z,36.77
2019-04-23T13:43:36.382Z,29.87
2019-04-23T13:48:15.172Z,37.77
2019-04-23T13:50:59.211Z,28.13
2019-04-23T13:53:34.377Z,23.10
2019-04-23T13:55:52.510Z,37.17
2019-04-23T14:01:18.199Z,28.73
2019-04-23T14:03:36.092Z,33.83
2019-04-23T14:06:10.882Z,36.13
2019-04-23T14:11:03.433Z,31.47
2019-04-23T14:18:51.541Z,32.03
2019-04-23T14:21:14.262Z,33.80
2019-04-23T14:23:59.137Z,29.20
2019-04-23T14:26:15.898Z,29.37
2019-04-23T14:28:41.841Z,26.90
2019-04-23T14:31:13.118Z,30.50
2019-04-23T14:33:51.232Z,34.67
2019-04-23T14:36:14.063Z,23.77
2019-04-23T14:38:43.926Z,31.27
2019-04-23T14:41:18.056Z,29.53
2019-04-23T14:43:49.821Z,30.97
2019-04-23T14:51:24.082Z,23.00
2019-04-23T14:58:57.995Z,24.03
2019-04-23T15:01:27.485Z,23.33
2019-04-23T15:06:31.581Z,32.47
2019-04-23T15:08:58.610Z,22.87
2019-04-23T15:11:27.109Z,24.40
2019-04-23T15:13:58.479Z,25.77
2019-04-23T15:19:23.721Z,24.80
2019-04-23T15:24:23.174Z,32.40
2019-04-23T15:29:01.140Z,23.00
2019-04-23T15:31:51.473Z,25.60
2019-04-23T15:34:17.764Z,20.53
2019-04-23T15:44:14.793Z,28.83
2019-04-23T15:46:49.114Z,30.40
2019-04-23T15:51:57.925Z,29.27
2019-04-23T15:56:54.709Z,22.80
2019-04-23T15:59:27.556Z,27.10
2019-04-23T16:01:43.381Z,27.47
2019-04-23T16:03:55.861Z,27.67
2019-04-23T16:06:28.478Z,23.73
2019-04-23T16:09:15.746Z,31.83
2019-04-23T16:11:58.092Z,28.63
2019-04-23T16:14:31.239Z,21.20
2019-04-23T16:19:45.791Z,28.30
2019-04-23T16:24:48.429Z,24.20
2019-04-23T16:27:11.106Z,27.50
2019-04-23T16:30:10.827Z,26.77
2019-04-23T16:32:30.957Z,24.93
2019-04-23T16:34:48.897Z,24.63
2019-04-23T16:37:24.862Z,25.73
2019-04-23T16:39:57.524Z,27.73
2019-04-23T16:42:26.730Z,28.80
2019-04-23T16:47:23.985Z,24.93
2019-04-23T16:50:04.972Z,20.20
2019-04-23T16:52:27.844Z,28.53
2019-04-23T16:57:35.983Z,20.87
2019-04-23T17:00:17.135Z,27.33
2019-04-23T17:02:24.434Z,17.53
2019-04-23T17:05:04.757Z,25.20
2019-04-23T17:07:19.736Z,26.23
2019-04-23T17:10:11.590Z,17.73
2019-04-23T17:12:16.676Z,21.67
2019-04-23T17:15:03.213Z,19.87
2019-04-23T17:17:25.181Z,24.63
2019-04-23T17:19:59.414Z,22.10
2019-04-23T17:22:30.090Z,16.73
2019-04-23T17:25:06.603Z,25.73
2019-04-23T17:27:41.641Z,18.67
2019-04-23T17:30:06.764Z,14.17
2019-04-23T17:32:28.283Z,27.10
2019-04-23T17:35:17.395Z,17.23
2019-04-23T17:37:38.112Z,20.10
2019-04-23T17:42:44.006Z,15.00
2019-04-23T17:45:30.855Z,23.47
2019-04-23T17:48:13.490Z,16.70
2019-04-23T17:56:01.081Z,16.33
2019-04-23T17:58:28.501Z,24.53
2019-04-23T18:01:07.342Z,15.90
2019-04-23T18:03:23.444Z,14.53
2019-04-23T18:06:14.293Z,14.07
2019-04-23T18:08:27.208Z,25.63
2019-04-23T18:11:05.999Z,12.23
2019-04-23T18:13:28.204Z,15.67
2019-04-23T18:16:04.128Z,15.10
2019-04-23T18:18:40.731Z,16.30
2019-04-23T18:21:21.442Z,22.43
2019-04-23T18:24:13.514Z,12.80
2019-04-23T18:26:42.626Z,12.07
2019-04-23T18:29:18.904Z,12.60
2019-04-23T18:31:38.274Z,11.00
2019-04-23T18:36:39.655Z,11.13
2019-04-23T18:39:12.112Z,11.90
2019-04-23T18:41:43.333Z,15.07
2019-04-23T18:46:54.136Z,15.70
2019-04-23T18:49:21.499Z,14.00
2019-04-23T18:54:14.443Z,15.50
2019-04-23T18:57:05.805Z,17.47
2019-04-23T18:59:39.294Z,13.17
2019-04-23T19:02:05.153Z,15.47
2019-04-23T19:04:50.997Z,12.70
2019-04-23T19:07:32.022Z,16.00
2019-04-23T19:12:44.385Z,12.80
2019-04-23T19:15:13.963Z,16.83
2019-04-23T19:20:16.170Z,18.20
2019-04-23T19:22:46.871Z,18.37
2019-04-23T19:25:16.331Z,20.87
2019-04-23T19:27:45.875Z,15.10
2019-04-23T19:40:53.564Z,16.57
2019-04-23T19:43:19.921Z,21.03
2019-04-23T19:53:29.728Z,23.37
2019-04-23T19:56:04.479Z,20.57
2019-04-23T19:58:31.069Z,19.67
2019-04-23T20:11:06.613Z,24.30
2019-04-23T20:13:47.182Z,17.70
2019-04-23T20:18:46.036Z,16.47
2019-04-23T20:24:02.968Z,17.70
2019-04-23T20:33:17.017Z,19.30
2019-04-23T20:39:09.099Z,18.77
2019-04-23T20:42:02.345Z,18.17
2019-04-23T20:44:33.571Z,18.70
2019-04-23T20:47:11.483Z,16.43
2019-04-23T20:57:24.959Z,21.80
2019-04-23T21:00:02.059Z,23.30
2019-04-23T21:02:39.070Z,18.20
2019-04-23T21:05:09.822Z,21.30
2019-04-23T21:07:31.591Z,25.10
2019-04-23T21:10:11.149Z,22.53
2019-04-23T21:12:45.859Z,22.87
2019-04-23T21:15:04.805Z,22.60
2019-04-23T21:17:38.432Z,19.87
2019-04-23T21:20:10.244Z,21.80
2019-04-23T21:24:56.602Z,23.07
2019-04-23T21:32:42.269Z,25.67
2019-04-23T21:35:07.752Z,23.33
2019-04-23T21:37:52.720Z,26.87
2019-04-23T21:43:08.899Z,25.93
2019-04-23T21:45:40.787Z,26.97
2019-04-23T21:48:09.666Z,33.20
2019-04-23T21:50:44.359Z,29.30
2019-04-23T21:53:06.820Z,31.00
2019-04-23T21:55:47.256Z,25.27
2019-04-23T22:00:54.985Z,36.90
2019-04-23T22:05:49.477Z,26.73
2019-04-23T22:08:35.150Z,33.67
2019-04-23T22:10:57.304Z,29.17
2019-04-23T22:13:34.954Z,27.40
2019-04-23T22:16:01.783Z,30.00
2019-04-23T22:18:22.023Z,38.70
2019-04-23T22:20:59.356Z,33.27
2019-04-23T22:23:33.829Z,33.13
2019-04-23T22:25:56.470Z,35.10
2019-04-23T22:28:26.990Z,34.93
2019-04-23T22:31:04.017Z,30.17
2019-04-23T22:33:27.225Z,36.53
2019-04-23T22:36:02.848Z,36.00
2019-04-23T22:40:58.162Z,42.90
2019-04-23T22:43:37.720Z,34.80
2019-04-23T22:46:16.322Z,40.83
2019-04-23T22:48:34.569Z,38.53
2019-04-23T22:51:11.016Z,41.10
2019-04-23T22:53:46.579Z,40.00
2019-04-23T22:58:42.623Z,39.80
2019-04-23T23:01:19.681Z,35.70
2019-04-23T23:03:51.584Z,39.30
2019-04-23T23:08:57.448Z,41.20
2019-04-23T23:11:14.106Z,41.57
2019-04-23T23:14:03.976Z,42.27
2019-04-23T23:16:16.424Z,39.30
2019-04-23T23:18:52.205Z,34.93
2019-04-23T23:23:46.348Z,41.47
2019-04-23T23:26:14.182Z,40.83
2019-04-23T23:28:44.634Z,35.90
2019-04-23T23:33:54.254Z,41.30
2019-04-23T23:36:20.240Z,36.97
2019-04-23T23:39:00.384Z,48.13
2019-04-23T23:43:54.631Z,39.00
2019-04-23T23:46:29.512Z,40.17
2019-04-23T23:48:57.089Z,45.33
2019-04-23T23:51:34.447Z,38.63
2019-04-23T23:53:57.153Z,39.00
